sensor_id;sensor_type;location;lat;lon;timestamp;temperature;humidity
26505;DHT22;19493;48.042;7.584;2023-03-19T00:01:50;11.60;73.70
26505;DHT22;19493;48.042;7.584;2023-03-19T00:04:16;11.60;74.90
26505;DHT22;19493;48.042;7.584;2023-03-19T00:06:42;11.60;73.20
26505;DHT22;19493;48.042;7.584;2023-03-19T00:09:08;11.70;73.50
26505;DHT22;19493;48.042;7.584;2023-03-19T00:11:33;11.70;72.70
26505;DHT22;19493;48.042;7.584;2023-03-19T00:13:59;11.70;72.50
26505;DHT22;19493;48.042;7.584;2023-03-19T00:16:25;11.70;72.30
26505;DHT22;19493;48.042;7.584;2023-03-19T00:18:50;11.70;72.30
26505;DHT22;19493;48.042;7.584;2023-03-19T00:21:16;11.80;71.80
26505;DHT22;19493;48.042;7.584;2023-03-19T00:23:41;11.80;71.60
26505;DHT22;19493;48.042;7.584;2023-03-19T00:26:07;11.80;72.80
26505;DHT22;19493;48.042;7.584;2023-03-19T00:28:33;11.80;72.60
26505;DHT22;19493;48.042;7.584;2023-03-19T00:31:10;11.80;72.70
26505;DHT22;19493;48.042;7.584;2023-03-19T00:33:37;11.70;72.90
26505;DHT22;19493;48.042;7.584;2023-03-19T00:36:03;11.70;73.80
26505;DHT22;19493;48.042;7.584;2023-03-19T00:38:30;11.70;74.80
26505;DHT22;19493;48.042;7.584;2023-03-19T00:40:55;11.70;76.30
26505;DHT22;19493;48.042;7.584;2023-03-19T00:43:21;11.60;77.80
26505;DHT22;19493;48.042;7.584;2023-03-19T00:45:46;11.30;79.60
26505;DHT22;19493;48.042;7.584;2023-03-19T00:48:12;10.90;84.90
26505;DHT22;19493;48.042;7.584;2023-03-19T00:50:37;10.60;89.10
26505;DHT22;19493;48.042;7.584;2023-03-19T00:53:03;10.30;92.70
26505;DHT22;19493;48.042;7.584;2023-03-19T00:55:29;10.10;97.60
26505;DHT22;19493;48.042;7.584;2023-03-19T00:57:54;9.90;99.90
26505;DHT22;19493;48.042;7.584;2023-03-19T01:00:20;9.80;99.90
26505;DHT22;19493;48.042;7.584;2023-03-19T01:02:46;9.80;99.90
26505;DHT22;19493;48.042;7.584;2023-03-19T01:05:12;9.70;99.90
26505;DHT22;19493;48.042;7.584;2023-03-19T01:07:38;9.70;99.90
26505;DHT22;19493;48.042;7.584;2023-03-19T01:10:04;9.60;99.90
26505;DHT22;19493;48.042;7.584;2023-03-19T01:12:30;9.60;99.90
26505;DHT22;19493;48.042;7.584;2023-03-19T01:14:55;9.60;99.90
26505;DHT22;19493;48.042;7.584;2023-03-19T01:17:21;9.60;99.90
26505;DHT22;19493;48.042;7.584;2023-03-19T01:19:48;9.50;99.90
26505;DHT22;19493;48.042;7.584;2023-03-19T01:22:13;9.50;99.90
26505;DHT22;19493;48.042;7.584;2023-03-19T01:24:41;9.50;99.90
26505;DHT22;19493;48.042;7.584;2023-03-19T01:27:07;9.50;99.90
26505;DHT22;19493;48.042;7.584;2023-03-19T01:29:33;9.50;99.90
26505;DHT22;19493;48.042;7.584;2023-03-19T01:31:59;9.50;99.90
26505;DHT22;19493;48.042;7.584;2023-03-19T01:34:25;9.40;99.90
26505;DHT22;19493;48.042;7.584;2023-03-19T01:36:51;9.50;99.90
26505;DHT22;19493;48.042;7.584;2023-03-19T01:39:17;9.50;99.90
26505;DHT22;19493;48.042;7.584;2023-03-19T01:41:42;9.60;99.90
26505;DHT22;19493;48.042;7.584;2023-03-19T01:44:34;9.60;99.90
26505;DHT22;19493;48.042;7.584;2023-03-19T01:47:04;9.80;99.90
26505;DHT22;19493;48.042;7.584;2023-03-19T01:49:31;9.90;99.90
26505;DHT22;19493;48.042;7.584;2023-03-19T01:51:59;10.00;99.90
26505;DHT22;19493;48.042;7.584;2023-03-19T01:54:26;10.10;99.90
26505;DHT22;19493;48.042;7.584;2023-03-19T01:56:58;10.20;99.90
26505;DHT22;19493;48.042;7.584;2023-03-19T01:59:30;10.20;99.90
26505;DHT22;19493;48.042;7.584;2023-03-19T02:04:28;10.30;99.90
26505;DHT22;19493;48.042;7.584;2023-03-19T02:06:57;10.40;99.90
26505;DHT22;19493;48.042;7.584;2023-03-19T02:09:24;10.40;99.90
26505;DHT22;19493;48.042;7.584;2023-03-19T02:11:50;10.40;99.90
26505;DHT22;19493;48.042;7.584;2023-03-19T02:14:17;10.40;99.90
26505;DHT22;19493;48.042;7.584;2023-03-19T02:16:43;10.30;99.90
26505;DHT22;19493;48.042;7.584;2023-03-19T02:19:15;10.30;99.90
26505;DHT22;19493;48.042;7.584;2023-03-19T02:21:41;10.30;99.90
26505;DHT22;19493;48.042;7.584;2023-03-19T02:24:27;10.20;99.90
26505;DHT22;19493;48.042;7.584;2023-03-19T02:26:57;10.20;99.90
26505;DHT22;19493;48.042;7.584;2023-03-19T02:29:22;10.10;99.90
26505;DHT22;19493;48.042;7.584;2023-03-19T02:31:48;10.20;99.90
26505;DHT22;19493;48.042;7.584;2023-03-19T02:36:57;10.20;99.90
26505;DHT22;19493;48.042;7.584;2023-03-19T02:39:27;10.30;99.90
26505;DHT22;19493;48.042;7.584;2023-03-19T02:41:55;10.30;99.90
26505;DHT22;19493;48.042;7.584;2023-03-19T02:44:22;10.40;99.90
26505;DHT22;19493;48.042;7.584;2023-03-19T02:46:48;10.40;99.90
26505;DHT22;19493;48.042;7.584;2023-03-19T02:49:14;10.50;99.90
26505;DHT22;19493;48.042;7.584;2023-03-19T02:51:40;10.50;99.90
26505;DHT22;19493;48.042;7.584;2023-03-19T02:54:06;10.60;99.90
26505;DHT22;19493;48.042;7.584;2023-03-19T02:56:32;10.60;99.90
26505;DHT22;19493;48.042;7.584;2023-03-19T02:58:58;10.70;99.90
26505;DHT22;19493;48.042;7.584;2023-03-19T03:01:23;10.70;99.90
26505;DHT22;19493;48.042;7.584;2023-03-19T03:03:49;10.70;99.90
26505;DHT22;19493;48.042;7.584;2023-03-19T03:06:15;10.80;99.90
26505;DHT22;19493;48.042;7.584;2023-03-19T03:08:42;10.80;99.90
26505;DHT22;19493;48.042;7.584;2023-03-19T03:11:08;10.80;99.90
26505;DHT22;19493;48.042;7.584;2023-03-19T03:13:33;10.80;99.90
26505;DHT22;19493;48.042;7.584;2023-03-19T03:16:00;10.80;99.90
26505;DHT22;19493;48.042;7.584;2023-03-19T03:18:26;10.80;99.90
26505;DHT22;19493;48.042;7.584;2023-03-19T03:20:51;10.80;99.90
26505;DHT22;19493;48.042;7.584;2023-03-19T03:23:18;10.80;99.90
26505;DHT22;19493;48.042;7.584;2023-03-19T03:25:44;11.00;99.90
26505;DHT22;19493;48.042;7.584;2023-03-19T03:28:09;11.00;99.90
26505;DHT22;19493;48.042;7.584;2023-03-19T03:30:36;11.10;99.90
26505;DHT22;19493;48.042;7.584;2023-03-19T03:33:02;11.20;99.90
26505;DHT22;19493;48.042;7.584;2023-03-19T03:35:28;11.30;99.90
26505;DHT22;19493;48.042;7.584;2023-03-19T03:37:53;11.30;99.90
26505;DHT22;19493;48.042;7.584;2023-03-19T03:40:19;11.40;99.90
26505;DHT22;19493;48.042;7.584;2023-03-19T03:42:45;11.40;99.90
26505;DHT22;19493;48.042;7.584;2023-03-19T03:45:11;11.50;99.90
26505;DHT22;19493;48.042;7.584;2023-03-19T03:47:37;11.50;99.90
26505;DHT22;19493;48.042;7.584;2023-03-19T03:50:04;11.50;99.90
26505;DHT22;19493;48.042;7.584;2023-03-19T03:52:30;11.60;99.90
26505;DHT22;19493;48.042;7.584;2023-03-19T03:54:58;11.60;99.90
26505;DHT22;19493;48.042;7.584;2023-03-19T03:57:23;11.60;99.90
26505;DHT22;19493;48.042;7.584;2023-03-19T03:59:49;11.60;99.90
26505;DHT22;19493;48.042;7.584;2023-03-19T04:02:15;11.70;99.90
26505;DHT22;19493;48.042;7.584;2023-03-19T04:04:41;11.70;99.90
26505;DHT22;19493;48.042;7.584;2023-03-19T04:07:06;11.60;99.90
26505;DHT22;19493;48.042;7.584;2023-03-19T04:09:32;11.60;99.90
26505;DHT22;19493;48.042;7.584;2023-03-19T04:11:58;11.50;99.90
26505;DHT22;19493;48.042;7.584;2023-03-19T04:14:23;11.50;99.90
26505;DHT22;19493;48.042;7.584;2023-03-19T04:16:49;11.40;99.90
26505;DHT22;19493;48.042;7.584;2023-03-19T04:19:15;11.40;99.90
26505;DHT22;19493;48.042;7.584;2023-03-19T04:21:41;11.30;99.90
26505;DHT22;19493;48.042;7.584;2023-03-19T04:24:07;11.30;99.90
26505;DHT22;19493;48.042;7.584;2023-03-19T04:26:35;11.30;99.90
26505;DHT22;19493;48.042;7.584;2023-03-19T04:29:01;11.20;99.90
26505;DHT22;19493;48.042;7.584;2023-03-19T04:31:26;11.20;99.90
26505;DHT22;19493;48.042;7.584;2023-03-19T04:33:52;11.30;99.90
26505;DHT22;19493;48.042;7.584;2023-03-19T04:36:25;11.30;99.90
26505;DHT22;19493;48.042;7.584;2023-03-19T04:38:51;11.40;99.90
26505;DHT22;19493;48.042;7.584;2023-03-19T04:41:17;11.40;99.90
26505;DHT22;19493;48.042;7.584;2023-03-19T04:43:42;11.40;99.90
26505;DHT22;19493;48.042;7.584;2023-03-19T04:46:09;11.40;99.90
26505;DHT22;19493;48.042;7.584;2023-03-19T04:48:35;11.40;99.90
26505;DHT22;19493;48.042;7.584;2023-03-19T04:51:04;11.30;99.90
26505;DHT22;19493;48.042;7.584;2023-03-19T04:53:33;11.20;99.90
26505;DHT22;19493;48.042;7.584;2023-03-19T04:55:58;11.20;99.90
26505;DHT22;19493;48.042;7.584;2023-03-19T04:58:24;11.20;99.90
26505;DHT22;19493;48.042;7.584;2023-03-19T05:00:49;11.20;99.90
26505;DHT22;19493;48.042;7.584;2023-03-19T05:03:15;11.30;99.90
26505;DHT22;19493;48.042;7.584;2023-03-19T05:05:40;11.20;99.90
26505;DHT22;19493;48.042;7.584;2023-03-19T05:08:06;11.30;99.90
26505;DHT22;19493;48.042;7.584;2023-03-19T05:10:33;11.30;99.90
26505;DHT22;19493;48.042;7.584;2023-03-19T05:12:59;11.30;99.90
26505;DHT22;19493;48.042;7.584;2023-03-19T05:15:24;11.40;99.90
26505;DHT22;19493;48.042;7.584;2023-03-19T05:17:50;11.50;99.90
26505;DHT22;19493;48.042;7.584;2023-03-19T05:20:16;11.70;99.90
26505;DHT22;19493;48.042;7.584;2023-03-19T05:22:42;11.80;99.90
26505;DHT22;19493;48.042;7.584;2023-03-19T05:25:08;11.80;99.90
26505;DHT22;19493;48.042;7.584;2023-03-19T05:27:34;11.90;99.90
26505;DHT22;19493;48.042;7.584;2023-03-19T05:29:59;11.80;99.90
26505;DHT22;19493;48.042;7.584;2023-03-19T05:32:26;11.80;99.90
26505;DHT22;19493;48.042;7.584;2023-03-19T05:34:51;11.70;99.90
26505;DHT22;19493;48.042;7.584;2023-03-19T05:37:17;11.70;99.90
26505;DHT22;19493;48.042;7.584;2023-03-19T05:39:42;11.60;99.90
26505;DHT22;19493;48.042;7.584;2023-03-19T05:42:08;11.60;99.90
26505;DHT22;19493;48.042;7.584;2023-03-19T05:44:34;11.60;99.90
26505;DHT22;19493;48.042;7.584;2023-03-19T05:46:59;11.50;99.90
26505;DHT22;19493;48.042;7.584;2023-03-19T05:49:25;11.50;99.90
26505;DHT22;19493;48.042;7.584;2023-03-19T05:51:51;11.40;99.90
26505;DHT22;19493;48.042;7.584;2023-03-19T05:54:16;11.40;99.90
26505;DHT22;19493;48.042;7.584;2023-03-19T05:56:42;11.30;99.90
26505;DHT22;19493;48.042;7.584;2023-03-19T05:59:07;11.20;99.90
26505;DHT22;19493;48.042;7.584;2023-03-19T06:01:33;11.20;99.90
26505;DHT22;19493;48.042;7.584;2023-03-19T06:03:59;11.20;99.90
26505;DHT22;19493;48.042;7.584;2023-03-19T06:06:24;11.20;99.90
26505;DHT22;19493;48.042;7.584;2023-03-19T06:08:51;11.20;99.90
26505;DHT22;19493;48.042;7.584;2023-03-19T06:11:17;11.20;99.90
26505;DHT22;19493;48.042;7.584;2023-03-19T06:13:43;11.30;99.90
26505;DHT22;19493;48.042;7.584;2023-03-19T06:16:09;11.40;99.90
26505;DHT22;19493;48.042;7.584;2023-03-19T06:18:34;11.50;99.90
26505;DHT22;19493;48.042;7.584;2023-03-19T06:21:00;11.50;99.90
26505;DHT22;19493;48.042;7.584;2023-03-19T06:23:26;11.60;99.90
26505;DHT22;19493;48.042;7.584;2023-03-19T06:25:51;11.70;99.90
26505;DHT22;19493;48.042;7.584;2023-03-19T06:28:17;11.80;99.90
26505;DHT22;19493;48.042;7.584;2023-03-19T06:30:43;11.80;99.90
26505;DHT22;19493;48.042;7.584;2023-03-19T06:33:08;11.90;99.90
26505;DHT22;19493;48.042;7.584;2023-03-19T06:35:34;12.10;99.90
26505;DHT22;19493;48.042;7.584;2023-03-19T06:38:00;12.20;99.90
26505;DHT22;19493;48.042;7.584;2023-03-19T06:40:25;12.30;99.90
26505;DHT22;19493;48.042;7.584;2023-03-19T06:42:51;12.40;99.90
26505;DHT22;19493;48.042;7.584;2023-03-19T06:45:16;12.50;99.90
26505;DHT22;19493;48.042;7.584;2023-03-19T06:47:44;12.60;99.90
26505;DHT22;19493;48.042;7.584;2023-03-19T06:50:11;12.60;99.90
26505;DHT22;19493;48.042;7.584;2023-03-19T06:52:38;12.70;99.90
26505;DHT22;19493;48.042;7.584;2023-03-19T06:55:04;12.80;99.90
26505;DHT22;19493;48.042;7.584;2023-03-19T06:57:30;12.80;99.90
26505;DHT22;19493;48.042;7.584;2023-03-19T06:59:56;12.80;99.90
26505;DHT22;19493;48.042;7.584;2023-03-19T07:02:21;12.90;99.90
26505;DHT22;19493;48.042;7.584;2023-03-19T07:04:47;12.80;99.90
26505;DHT22;19493;48.042;7.584;2023-03-19T07:07:13;12.80;99.90
26505;DHT22;19493;48.042;7.584;2023-03-19T07:09:38;12.80;99.90
26505;DHT22;19493;48.042;7.584;2023-03-19T07:12:05;12.70;99.90
26505;DHT22;19493;48.042;7.584;2023-03-19T07:14:31;12.70;99.90
26505;DHT22;19493;48.042;7.584;2023-03-19T07:16:56;12.90;99.90
26505;DHT22;19493;48.042;7.584;2023-03-19T07:19:22;13.10;99.90
26505;DHT22;19493;48.042;7.584;2023-03-19T07:21:47;13.30;99.90
26505;DHT22;19493;48.042;7.584;2023-03-19T07:24:13;13.40;99.90
26505;DHT22;19493;48.042;7.584;2023-03-19T07:26:39;13.40;99.90
26505;DHT22;19493;48.042;7.584;2023-03-19T07:29:04;13.50;99.90
26505;DHT22;19493;48.042;7.584;2023-03-19T07:31:30;13.60;99.90
26505;DHT22;19493;48.042;7.584;2023-03-19T07:33:56;13.70;99.90
26505;DHT22;19493;48.042;7.584;2023-03-19T07:36:22;13.80;99.90
26505;DHT22;19493;48.042;7.584;2023-03-19T07:38:47;14.00;99.90
26505;DHT22;19493;48.042;7.584;2023-03-19T07:41:13;14.10;99.90
26505;DHT22;19493;48.042;7.584;2023-03-19T07:43:38;14.40;99.90
26505;DHT22;19493;48.042;7.584;2023-03-19T07:46:04;14.60;99.90
26505;DHT22;19493;48.042;7.584;2023-03-19T07:48:30;14.80;99.90
26505;DHT22;19493;48.042;7.584;2023-03-19T07:50:56;15.10;99.70
26505;DHT22;19493;48.042;7.584;2023-03-19T07:53:21;15.10;99.30
26505;DHT22;19493;48.042;7.584;2023-03-19T07:55:47;15.10;99.00
26505;DHT22;19493;48.042;7.584;2023-03-19T07:58:13;15.20;99.40
26505;DHT22;19493;48.042;7.584;2023-03-19T08:00:39;15.20;98.70
26505;DHT22;19493;48.042;7.584;2023-03-19T08:03:05;15.00;98.80
26505;DHT22;19493;48.042;7.584;2023-03-19T08:05:30;14.70;99.20
26505;DHT22;19493;48.042;7.584;2023-03-19T08:07:56;14.50;99.10
26505;DHT22;19493;48.042;7.584;2023-03-19T08:10:21;14.30;99.40
26505;DHT22;19493;48.042;7.584;2023-03-19T08:12:47;14.20;99.60
26505;DHT22;19493;48.042;7.584;2023-03-19T08:15:13;14.20;99.90
26505;DHT22;19493;48.042;7.584;2023-03-19T08:17:39;14.30;99.60
26505;DHT22;19493;48.042;7.584;2023-03-19T08:20:07;14.40;99.90
26505;DHT22;19493;48.042;7.584;2023-03-19T08:22:34;14.60;99.50
26505;DHT22;19493;48.042;7.584;2023-03-19T08:25:00;14.70;99.60
26505;DHT22;19493;48.042;7.584;2023-03-19T08:27:26;14.90;99.40
26505;DHT22;19493;48.042;7.584;2023-03-19T08:29:52;15.00;99.00
26505;DHT22;19493;48.042;7.584;2023-03-19T08:32:18;15.10;98.60
26505;DHT22;19493;48.042;7.584;2023-03-19T08:34:43;15.00;98.90
26505;DHT22;19493;48.042;7.584;2023-03-19T08:37:09;15.10;98.90
26505;DHT22;19493;48.042;7.584;2023-03-19T08:39:35;15.20;99.20
26505;DHT22;19493;48.042;7.584;2023-03-19T08:42:00;15.50;99.00
26505;DHT22;19493;48.042;7.584;2023-03-19T08:44:26;15.60;98.80
26505;DHT22;19493;48.042;7.584;2023-03-19T08:46:51;15.60;98.50
26505;DHT22;19493;48.042;7.584;2023-03-19T08:49:17;15.70;98.50
26505;DHT22;19493;48.042;7.584;2023-03-19T08:51:42;15.90;98.10
26505;DHT22;19493;48.042;7.584;2023-03-19T08:54:08;16.10;98.30
26505;DHT22;19493;48.042;7.584;2023-03-19T08:56:35;16.00;97.30
26505;DHT22;19493;48.042;7.584;2023-03-19T08:59:02;16.00;97.60
26505;DHT22;19493;48.042;7.584;2023-03-19T09:01:28;16.10;97.50
26505;DHT22;19493;48.042;7.584;2023-03-19T09:03:53;16.50;96.60
26505;DHT22;19493;48.042;7.584;2023-03-19T09:06:19;17.00;96.40
26505;DHT22;19493;48.042;7.584;2023-03-19T09:08:44;16.90;95.90
26505;DHT22;19493;48.042;7.584;2023-03-19T09:11:10;16.50;95.90
26505;DHT22;19493;48.042;7.584;2023-03-19T09:13:38;16.30;96.50
26505;DHT22;19493;48.042;7.584;2023-03-19T09:16:04;15.90;97.10
26505;DHT22;19493;48.042;7.584;2023-03-19T09:18:31;15.70;96.80
26505;DHT22;19493;48.042;7.584;2023-03-19T09:20:56;15.40;97.30
26505;DHT22;19493;48.042;7.584;2023-03-19T09:23:22;15.20;97.90
26505;DHT22;19493;48.042;7.584;2023-03-19T09:25:48;15.20;98.00
26505;DHT22;19493;48.042;7.584;2023-03-19T09:28:14;15.20;98.50
26505;DHT22;19493;48.042;7.584;2023-03-19T09:30:39;15.20;98.10
26505;DHT22;19493;48.042;7.584;2023-03-19T09:33:05;15.50;98.10
26505;DHT22;19493;48.042;7.584;2023-03-19T09:35:31;15.70;97.70
26505;DHT22;19493;48.042;7.584;2023-03-19T09:37:59;15.70;97.50
26505;DHT22;19493;48.042;7.584;2023-03-19T09:40:48;15.80;97.40
26505;DHT22;19493;48.042;7.584;2023-03-19T09:45:52;15.40;97.60
26505;DHT22;19493;48.042;7.584;2023-03-19T09:48:36;15.10;98.10
26505;DHT22;19493;48.042;7.584;2023-03-19T09:51:07;15.00;98.50
26505;DHT22;19493;48.042;7.584;2023-03-19T09:53:59;14.90;98.60
26505;DHT22;19493;48.042;7.584;2023-03-19T09:56:26;14.80;98.80
26505;DHT22;19493;48.042;7.584;2023-03-19T09:58:52;14.80;99.00
26505;DHT22;19493;48.042;7.584;2023-03-19T10:01:28;15.50;98.60
26505;DHT22;19493;48.042;7.584;2023-03-19T10:04:36;16.00;98.10
26505;DHT22;19493;48.042;7.584;2023-03-19T10:07:38;16.60;97.50
26505;DHT22;19493;48.042;7.584;2023-03-19T10:15:30;18.00;94.50
26505;DHT22;19493;48.042;7.584;2023-03-19T10:23:51;16.60;96.60
26505;DHT22;19493;48.042;7.584;2023-03-19T10:26:23;16.20;97.00
26505;DHT22;19493;48.042;7.584;2023-03-19T10:29:09;16.00;97.80
26505;DHT22;19493;48.042;7.584;2023-03-19T10:32:02;16.20;97.90
26505;DHT22;19493;48.042;7.584;2023-03-19T10:34:32;16.40;97.70
26505;DHT22;19493;48.042;7.584;2023-03-19T10:39:41;16.80;96.90
26505;DHT22;19493;48.042;7.584;2023-03-19T10:45:27;17.30;95.90
26505;DHT22;19493;48.042;7.584;2023-03-19T10:47:55;17.10;95.80
26505;DHT22;19493;48.042;7.584;2023-03-19T10:50:35;17.50;95.60
26505;DHT22;19493;48.042;7.584;2023-03-19T10:55:31;18.00;94.10
26505;DHT22;19493;48.042;7.584;2023-03-19T10:58:03;17.90;94.40
26505;DHT22;19493;48.042;7.584;2023-03-19T11:00:31;17.80;93.70
26505;DHT22;19493;48.042;7.584;2023-03-19T11:02:57;17.70;93.60
26505;DHT22;19493;48.042;7.584;2023-03-19T11:05:30;17.70;93.80
26505;DHT22;19493;48.042;7.584;2023-03-19T11:08:02;17.50;93.80
26505;DHT22;19493;48.042;7.584;2023-03-19T11:10:30;17.70;94.00
26505;DHT22;19493;48.042;7.584;2023-03-19T11:13:24;17.50;93.20
26505;DHT22;19493;48.042;7.584;2023-03-19T11:15:52;17.30;93.00
26505;DHT22;19493;48.042;7.584;2023-03-19T11:18:20;17.20;93.30
26505;DHT22;19493;48.042;7.584;2023-03-19T11:21:04;17.10;93.60
26505;DHT22;19493;48.042;7.584;2023-03-19T11:23:38;17.20;93.30
26505;DHT22;19493;48.042;7.584;2023-03-19T11:26:04;16.70;93.70
26505;DHT22;19493;48.042;7.584;2023-03-19T11:28:30;16.50;94.00
26505;DHT22;19493;48.042;7.584;2023-03-19T11:33:51;16.30;94.80
26505;DHT22;19493;48.042;7.584;2023-03-19T11:36:30;16.10;94.70
26505;DHT22;19493;48.042;7.584;2023-03-19T11:42:30;16.30;94.30
26505;DHT22;19493;48.042;7.584;2023-03-19T11:45:17;16.20;94.30
26505;DHT22;19493;48.042;7.584;2023-03-19T11:47:54;16.20;94.30
26505;DHT22;19493;48.042;7.584;2023-03-19T11:50:43;16.20;94.70
26505;DHT22;19493;48.042;7.584;2023-03-19T11:53:29;16.20;94.40
26505;DHT22;19493;48.042;7.584;2023-03-19T11:56:04;16.20;94.20
26505;DHT22;19493;48.042;7.584;2023-03-19T12:19:01;16.00;95.20
26505;DHT22;19493;48.042;7.584;2023-03-19T12:27:21;15.70;94.90
26505;DHT22;19493;48.042;7.584;2023-03-19T12:30:14;15.70;95.30
26505;DHT22;19493;48.042;7.584;2023-03-19T12:35:17;15.60;97.00
26505;DHT22;19493;48.042;7.584;2023-03-19T12:37:55;15.30;98.10
26505;DHT22;19493;48.042;7.584;2023-03-19T12:40:33;15.00;99.70
26505;DHT22;19493;48.042;7.584;2023-03-19T12:43:05;14.70;99.90
26505;DHT22;19493;48.042;7.584;2023-03-19T12:45:46;14.40;99.90
26505;DHT22;19493;48.042;7.584;2023-03-19T12:48:22;14.30;99.90
26505;DHT22;19493;48.042;7.584;2023-03-19T12:50:52;14.70;99.90
26505;DHT22;19493;48.042;7.584;2023-03-19T12:56:16;15.50;98.60
26505;DHT22;19493;48.042;7.584;2023-03-19T12:59:08;15.70;98.50
26505;DHT22;19493;48.042;7.584;2023-03-19T13:01:40;15.80;97.90
26505;DHT22;19493;48.042;7.584;2023-03-19T13:04:22;15.90;97.30
26505;DHT22;19493;48.042;7.584;2023-03-19T13:09:59;15.80;96.20
26505;DHT22;19493;48.042;7.584;2023-03-19T13:12:31;15.50;96.70
26505;DHT22;19493;48.042;7.584;2023-03-19T13:14:58;15.30;97.60
26505;DHT22;19493;48.042;7.584;2023-03-19T13:17:53;15.00;98.60
26505;DHT22;19493;48.042;7.584;2023-03-19T13:23:10;14.80;99.40
26505;DHT22;19493;48.042;7.584;2023-03-19T13:25:40;14.70;99.60
26505;DHT22;19493;48.042;7.584;2023-03-19T13:28:27;14.70;99.90
26505;DHT22;19493;48.042;7.584;2023-03-19T13:31:07;14.80;99.80
26505;DHT22;19493;48.042;7.584;2023-03-19T13:33:36;14.90;99.90
26505;DHT22;19493;48.042;7.584;2023-03-19T13:36:11;15.10;99.90
26505;DHT22;19493;48.042;7.584;2023-03-19T13:38:42;15.20;99.30
26505;DHT22;19493;48.042;7.584;2023-03-19T13:46:46;16.70;97.00
26505;DHT22;19493;48.042;7.584;2023-03-19T13:51:47;18.00;94.10
26505;DHT22;19493;48.042;7.584;2023-03-19T13:54:18;17.60;93.70
26505;DHT22;19493;48.042;7.584;2023-03-19T13:59:33;17.00;94.20
26505;DHT22;19493;48.042;7.584;2023-03-19T14:01:59;16.60;94.30
26505;DHT22;19493;48.042;7.584;2023-03-19T14:04:28;16.40;94.90
26505;DHT22;19493;48.042;7.584;2023-03-19T14:07:08;16.40;95.20
26505;DHT22;19493;48.042;7.584;2023-03-19T14:09:44;16.40;95.30
26505;DHT22;19493;48.042;7.584;2023-03-19T14:14:58;16.40;95.60
26505;DHT22;19493;48.042;7.584;2023-03-19T14:17:26;16.30;95.30
26505;DHT22;19493;48.042;7.584;2023-03-19T14:19:55;16.30;95.60
26505;DHT22;19493;48.042;7.584;2023-03-19T14:22:38;16.20;95.90
26505;DHT22;19493;48.042;7.584;2023-03-19T14:25:19;15.90;96.40
26505;DHT22;19493;48.042;7.584;2023-03-19T14:27:48;15.80;96.60
26505;DHT22;19493;48.042;7.584;2023-03-19T14:30:18;15.90;96.30
26505;DHT22;19493;48.042;7.584;2023-03-19T14:32:46;16.20;95.40
26505;DHT22;19493;48.042;7.584;2023-03-19T14:35:17;16.50;94.70
26505;DHT22;19493;48.042;7.584;2023-03-19T14:37:48;17.00;94.10
26505;DHT22;19493;48.042;7.584;2023-03-19T14:40:23;18.20;92.20
26505;DHT22;19493;48.042;7.584;2023-03-19T14:45:41;19.40;87.50
26505;DHT22;19493;48.042;7.584;2023-03-19T14:48:15;20.00;86.20
26505;DHT22;19493;48.042;7.584;2023-03-19T14:54:18;22.20;73.20
26505;DHT22;19493;48.042;7.584;2023-03-19T14:56:47;20.30;74.90
26505;DHT22;19493;48.042;7.584;2023-03-19T14:59:13;20.50;76.90
26505;DHT22;19493;48.042;7.584;2023-03-19T15:01:45;23.00;72.70
26505;DHT22;19493;48.042;7.584;2023-03-19T15:04:14;24.00;65.30
26505;DHT22;19493;48.042;7.584;2023-03-19T15:06:43;23.20;64.70
26505;DHT22;19493;48.042;7.584;2023-03-19T15:09:19;22.10;66.50
26505;DHT22;19493;48.042;7.584;2023-03-19T15:12:01;22.20;66.90
26505;DHT22;19493;48.042;7.584;2023-03-19T15:14:52;22.50;64.80
26505;DHT22;19493;48.042;7.584;2023-03-19T15:17:27;21.20;65.80
26505;DHT22;19493;48.042;7.584;2023-03-19T15:19:54;19.30;71.00
26505;DHT22;19493;48.042;7.584;2023-03-19T15:22:33;18.10;73.20
26505;DHT22;19493;48.042;7.584;2023-03-19T15:25:11;17.20;76.60
26505;DHT22;19493;48.042;7.584;2023-03-19T15:27:37;17.00;78.80
26505;DHT22;19493;48.042;7.584;2023-03-19T15:30:20;16.90;79.40
26505;DHT22;19493;48.042;7.584;2023-03-19T15:32:46;16.70;80.20
26505;DHT22;19493;48.042;7.584;2023-03-19T15:35:11;16.60;80.70
26505;DHT22;19493;48.042;7.584;2023-03-19T15:37:43;16.40;81.90
26505;DHT22;19493;48.042;7.584;2023-03-19T15:40:13;16.40;83.10
26505;DHT22;19493;48.042;7.584;2023-03-19T15:42:40;16.40;83.60
26505;DHT22;19493;48.042;7.584;2023-03-19T15:45:09;16.40;83.70
26505;DHT22;19493;48.042;7.584;2023-03-19T15:47:40;16.20;83.70
26505;DHT22;19493;48.042;7.584;2023-03-19T15:50:17;16.10;84.60
26505;DHT22;19493;48.042;7.584;2023-03-19T15:52:56;15.90;88.60
26505;DHT22;19493;48.042;7.584;2023-03-19T15:55:24;15.60;91.90
26505;DHT22;19493;48.042;7.584;2023-03-19T15:57:52;15.40;93.40
26505;DHT22;19493;48.042;7.584;2023-03-19T16:00:19;15.40;94.20
26505;DHT22;19493;48.042;7.584;2023-03-19T16:02:48;15.40;94.40
26505;DHT22;19493;48.042;7.584;2023-03-19T16:05:26;15.40;94.60
26505;DHT22;19493;48.042;7.584;2023-03-19T16:08:01;15.30;95.10
26505;DHT22;19493;48.042;7.584;2023-03-19T16:10:42;15.10;95.90
26505;DHT22;19493;48.042;7.584;2023-03-19T16:13:36;14.90;96.50
26505;DHT22;19493;48.042;7.584;2023-03-19T16:16:18;14.70;97.50
26505;DHT22;19493;48.042;7.584;2023-03-19T16:18:52;14.70;97.90
26505;DHT22;19493;48.042;7.584;2023-03-19T16:21:37;14.60;98.00
26505;DHT22;19493;48.042;7.584;2023-03-19T16:24:20;14.60;98.40
26505;DHT22;19493;48.042;7.584;2023-03-19T16:26:49;14.50;98.70
26505;DHT22;19493;48.042;7.584;2023-03-19T16:29:25;14.60;98.90
26505;DHT22;19493;48.042;7.584;2023-03-19T16:32:00;14.60;98.80
26505;DHT22;19493;48.042;7.584;2023-03-19T16:34:52;14.60;99.10
26505;DHT22;19493;48.042;7.584;2023-03-19T16:47:39;14.70;99.90
26505;DHT22;19493;48.042;7.584;2023-03-19T16:50:05;14.50;99.90
26505;DHT22;19493;48.042;7.584;2023-03-19T16:52:31;14.20;99.90
26505;DHT22;19493;48.042;7.584;2023-03-19T16:54:58;14.00;99.90
26505;DHT22;19493;48.042;7.584;2023-03-19T16:57:24;13.80;99.90
26505;DHT22;19493;48.042;7.584;2023-03-19T16:59:50;13.60;99.90
26505;DHT22;19493;48.042;7.584;2023-03-19T17:02:17;13.50;99.90
26505;DHT22;19493;48.042;7.584;2023-03-19T17:04:43;13.40;99.90
26505;DHT22;19493;48.042;7.584;2023-03-19T17:07:09;13.40;99.90
26505;DHT22;19493;48.042;7.584;2023-03-19T17:09:35;13.30;99.90
26505;DHT22;19493;48.042;7.584;2023-03-19T17:12:02;13.30;99.90
26505;DHT22;19493;48.042;7.584;2023-03-19T17:14:28;13.20;99.90
26505;DHT22;19493;48.042;7.584;2023-03-19T17:16:55;13.20;99.90
26505;DHT22;19493;48.042;7.584;2023-03-19T17:19:23;13.10;99.90
26505;DHT22;19493;48.042;7.584;2023-03-19T17:21:54;13.10;99.90
26505;DHT22;19493;48.042;7.584;2023-03-19T17:24:32;13.00;99.90
26505;DHT22;19493;48.042;7.584;2023-03-19T17:27:00;13.00;99.90